• Join FlightAware (Why Join?)
  • Login
  • US Flag 
11:21AM EST


 

Airport Tracker/Info


-or-


 

Live Flight TrackerFlight Track Log ✈ N245PE ✈ 19-Aug-2013 ✈ KPDK - KPDK

Flight Track Log - Related Links

Times and Time Zones

All times are in EDT time to prevent confusion due to time zone crossing. See the N245PE flight status page for this flight to view local times or setup timezone preferences in your user account.

Time Position Orientation Groundspeed Altitude Reporting Facility
EDT Latitude Longitude Course Direction KTS MPH feet Rate Location/Type
02:06PM 33.8500 -84.3000 59° Northeast 114 131 2,300  Level Atlanta TRACON
02:07PM 33.8667 -84.2667 59° Northeast 138 159 3,800 1,380 Climbing Atlanta TRACON
02:08PM 33.8667 -84.2167 90° East 159 183 5,100 1,560 Climbing Atlanta TRACON
02:09PM 33.8667 -84.1667 90° East 164 189 7,000 900 Climbing Atlanta TRACON
02:10PM 33.8833 -84.0833 76° East 243 280 7,000  Level Atlanta TRACON
02:11PM 33.8833 -84.0000 90° East 256 295 7,000  Level Atlanta TRACON
02:12PM 33.9000 -83.9167 76° East 259 298 7,000  Level Atlanta TRACON
02:13PM 33.9000 -83.8333 90° East 261 300 7,000  Level Atlanta TRACON
02:14PM 33.9167 -83.7500 76° East 259 298 7,000  Level Atlanta TRACON
02:15PM 33.9167 -83.6667 90° East 256 295 7,000 -660 Level Atlanta TRACON
02:16PM 33.9000 -83.5833 104° East 219 252 5,700 -1,980 Descending Atlanta TRACON
02:17PM 33.8833 -83.5333 112° Southeast 212 244 3,300 -1,440 Descending Atlanta TRACON
02:18PM 33.9167 -83.5000 40° Northeast 186 214 3,000 -480 Descending Atlanta TRACON
02:19PM 33.9500 -83.4667 40° Northeast 193 222 2,400 -480 Descending Atlanta TRACON
02:20PM 33.9500 -83.4167 90° East 116 133 2,100 -480 Descending Atlanta TRACON
02:21PM 33.9500 -83.3833 90° East 123 142 1,500 180 Descending Atlanta TRACON
02:23PM 33.9667 -83.3167 73° East 141 162 2,700 780 Climbing Atlanta TRACON
02:24PM 33.9667 -83.3667 270° West 175 201 4,000 600 Climbing Atlanta TRACON
02:25PM 33.9667 -83.4333 270° West 199 229 4,000  Level Atlanta TRACON
02:26PM 33.9500 -83.4833 248° West 160 184 4,000  Level Atlanta TRACON
02:27PM 33.9500 -83.5333 270° West 158 182 4,000  Level Atlanta TRACON
02:28PM 33.9333 -83.5833 248° West 169 194 4,000  Level Atlanta TRACON
02:29PM 33.9167 -83.6333 248° West 175 201 4,000  Level Atlanta TRACON
02:30PM 33.9333 -83.6333 360° North 198 228 4,000  Level Atlanta TRACON
02:31PM 33.9500 -83.5667 73° East 180 207 4,000  Level Atlanta TRACON
02:31PM 33.9167 -83.5333 140° Southeast 195 224 4,000  Level Atlanta TRACON
02:33PM 33.9167 -83.5833 270° West 171 197 4,000  Level Atlanta TRACON
02:34PM 33.9333 -83.6500 287° West 190 219 4,000  Level Atlanta TRACON
02:35PM 33.9500 -83.7167 287° West 224 258 4,000  Level Atlanta TRACON
02:36PM 33.9833 -83.7833 301° West 237 273 4,000  Level Atlanta TRACON
02:37PM 34.0167 -83.8667 296° West 234 269 4,000  Level Atlanta TRACON
02:38PM 34.0333 -83.9333 287° West 234 269 4,000  Level Atlanta TRACON
02:38PM 34.0667 -84.0000 301° West 235 270 4,000 -60 Level Atlanta TRACON
02:39PM 34.0667 -84.0667 270° West 215 247 3,900 -540 Descending Atlanta TRACON
02:40PM 34.0667 -84.1333 270° West 181 208 3,000 -480 Descending Atlanta TRACON
02:41PM 34.0667 -84.1833 270° West 194 223 3,000 -60 Level Atlanta TRACON
02:42PM 34.0333 -84.2333 231° Southwest 241 277 2,900  Descending Atlanta TRACON
02:43PM 33.9833 -84.2500 195° South 165 190 3,000 -300 Climbing Atlanta TRACON
02:44PM 33.9500 -84.2667 203° Southwest 132 152 2,400 -660 Descending Atlanta TRACON
02:45PM 33.9167 -84.2833 203° Southwest 106 122 1,700 -660 Descending Atlanta TRACON
02:47PM 33.8820 -84.2991 270° West  Level Estimated
02:54PM 33.8756 -84.3020 270° West  Level Estimated
02:55PM 33.8756 -84.3020 270° West  Level Estimated